Time;durP1;ratioP1;P1;durP2;ratioP2;P2;SDS_P1;SDS_P2;PMS_P1;PMS_P2;Temp;Humidity;BMP_temperature;BMP_pressure;BME280_temperature;BME280_humidity;BME280_pressure;Samples;Min_cycle;Max_cycle;Signal;HPM_P1;HPM_P2
2021/03/18 00:00:13;;;;;;;19.25;6.18;;;;;;;;;;5034809;28;20078;-86
2021/03/18 00:02:38;;;;;;;11.52;5.90;;;;;;;;;;5057908;28;20026;-86
2021/03/18 00:05:05;;;;;;;16.83;6.38;;;;;;;;;;5047448;28;20021;-86
2021/03/18 00:07:30;;;;;;;14.93;5.93;;;;;;;;;;5040385;28;20102;-86
2021/03/18 00:09:56;;;;;;;15.20;6.75;;;;;;;;;;5034597;28;20013;-86
2021/03/18 00:12:21;;;;;;;15.93;5.93;;;;;;;;;;5035043;28;20036;-86
2021/03/18 00:14:47;;;;;;;15.52;5.72;;;;;;;;;;5053089;28;20029;-86
2021/03/18 00:17:12;;;;;;;28.15;6.90;;;;;;;;;;5033679;28;20028;-85
2021/03/18 00:19:37;;;;;;;14.27;6.22;;;;;;;;;;5034353;28;20405;-86
2021/03/18 00:22:03;;;;;;;12.48;5.75;;;;;;;;;;5049384;28;20028;-86
2021/03/18 00:24:28;;;;;;;14.90;6.07;;;;;;;;;;5053263;28;20028;-86
2021/03/18 00:26:53;;;;;;;14.75;5.90;;;;;;;;;;5053185;28;20060;-85
2021/03/18 00:29:18;;;;;;;15.73;5.60;;;;;;;;;;5035765;28;20028;-86
2021/03/18 00:31:44;;;;;;;15.77;6.35;;;;;;;;;;5035897;28;20123;-87
2021/03/18 00:34:12;;;;;;;11.85;5.55;;;;;;;;;;5055111;28;20488;-86
2021/03/18 00:36:37;;;;;;;14.02;6.25;;;;;;;;;;5066506;28;20020;-87
2021/03/18 00:39:05;;;;;;;11.52;6.35;;;;;;;;;;5063756;28;20056;-85
2021/03/18 00:41:31;;;;;;;11.93;5.20;;;;;;;;;;5052436;28;20061;-86
2021/03/18 00:43:56;;;;;;;16.02;5.55;;;;;;;;;;5066766;28;20024;-86
2021/03/18 00:46:21;;;;;;;15.18;5.35;;;;;;;;;;5063067;28;20700;-86
2021/03/18 00:48:47;;;;;;;19.65;6.28;;;;;;;;;;5034382;28;20548;-86
2021/03/18 00:51:13;;;;;;;15.85;5.30;;;;;;;;;;5056798;28;20069;-86
2021/03/18 00:53:41;;;;;;;15.25;5.57;;;;;;;;;;5035859;28;20020;-86
2021/03/18 00:56:08;;;;;;;12.82;5.45;;;;;;;;;;5035299;28;20025;-87
2021/03/18 00:58:34;;;;;;;13.57;5.30;;;;;;;;;;5044980;28;20044;-86
2021/03/18 01:01:01;;;;;;;19.17;7.60;;;;;;;;;;5034390;28;20029;-87
2021/03/18 01:03:27;;;;;;;18.10;5.95;;;;;;;;;;5033790;28;20040;-86
2021/03/18 01:06:03;;;;;;;16.13;5.72;;;;;;;;;;5052832;28;20059;-86
2021/03/18 01:11:01;;;;;;;18.13;5.45;;;;;;;;;;5059572;28;20085;-65
2021/03/18 01:13:27;;;;;;;11.25;5.10;;;;;;;;;;5071225;28;20025;-65
2021/03/18 01:16:12;;;;;;;19.45;5.65;;;;;;;;;;5071687;28;20043;-65
2021/03/18 01:19:04;;;;;;;18.25;5.30;;;;;;;;;;5056513;28;20111;-66
2021/03/18 01:21:31;;;;;;;15.65;5.22;;;;;;;;;;5071730;22;20060;-82
2021/03/18 01:23:56;;;;;;;18.98;6.55;;;;;;;;;;5040307;28;20021;-82
2021/03/18 01:26:22;;;;;;;15.25;6.25;;;;;;;;;;5053350;28;20381;-83
2021/03/18 01:28:47;;;;;;;10.30;4.70;;;;;;;;;;5033887;28;20655;-82
2021/03/18 01:31:12;;;;;;;20.55;4.93;;;;;;;;;;5034703;28;20401;-83
2021/03/18 01:33:38;;;;;;;13.20;4.82;;;;;;;;;;5034048;28;20032;-83
2021/03/18 01:36:07;;;;;;;11.48;4.90;;;;;;;;;;5034676;28;20086;-83
2021/03/18 01:38:32;;;;;;;15.93;5.38;;;;;;;;;;5045982;28;20025;-82
2021/03/18 01:40:57;;;;;;;10.32;5.28;;;;;;;;;;5052733;28;20029;-83
2021/03/18 01:43:23;;;;;;;15.63;5.75;;;;;;;;;;5052466;28;20040;-83
2021/03/18 01:45:49;;;;;;;12.60;5.03;;;;;;;;;;5033553;28;20064;-85
2021/03/18 01:48:14;;;;;;;17.98;5.75;;;;;;;;;;5049828;28;20021;-83
2021/03/18 01:50:40;;;;;;;13.88;5.82;;;;;;;;;;5051150;28;20028;-83
2021/03/18 01:53:05;;;;;;;13.00;5.53;;;;;;;;;;5043541;28;20051;-83
2021/03/18 01:55:38;;;;;;;14.73;5.85;;;;;;;;;;5039260;28;20243;-83
2021/03/18 01:58:04;;;;;;;21.58;6.57;;;;;;;;;;5046416;28;20043;-83
2021/03/18 02:00:30;;;;;;;13.90;6.38;;;;;;;;;;5066721;28;20036;-83
2021/03/18 02:02:56;;;;;;;13.27;6.18;;;;;;;;;;5040270;28;20028;-84
2021/03/18 02:05:22;;;;;;;16.77;5.82;;;;;;;;;;5032786;28;20051;-83
2021/03/18 02:07:52;;;;;;;11.20;5.18;;;;;;;;;;5049607;28;20033;-83
2021/03/18 02:10:18;;;;;;;19.52;6.03;;;;;;;;;;5026902;28;20100;-83
2021/03/18 02:12:43;;;;;;;14.52;6.18;;;;;;;;;;5029211;28;20114;-83
2021/03/18 02:15:09;;;;;;;18.35;6.03;;;;;;;;;;5039373;28;20025;-82
2021/03/18 02:17:53;;;;;;;20.90;7.32;;;;;;;;;;5054709;28;20327;-83
2021/03/18 02:20:37;;;;;;;15.27;6.43;;;;;;;;;;5080157;28;20142;-83
2021/03/18 02:23:21;;;;;;;13.90;6.20;;;;;;;;;;5031278;28;20063;-83
2021/03/18 02:25:51;;;;;;;14.65;5.57;;;;;;;;;;5032222;28;20404;-83
2021/03/18 02:28:25;;;;;;;15.82;5.75;;;;;;;;;;5050148;28;20033;-83
2021/03/18 02:30:57;;;;;;;23.08;6.28;;;;;;;;;;5051383;28;20017;-82
2021/03/18 02:33:48;;;;;;;22.73;7.07;;;;;;;;;;5047242;28;20503;-82
2021/03/18 02:36:21;;;;;;;25.27;7.22;;;;;;;;;;5027827;28;20083;-82
2021/03/18 02:38:52;;;;;;;12.38;5.30;;;;;;;;;;5031512;28;20055;-83
2021/03/18 02:41:20;;;;;;;15.77;6.50;;;;;;;;;;5051174;28;20136;-82
2021/03/18 02:43:47;;;;;;;20.85;7.82;;;;;;;;;;5032664;28;20155;-83
2021/03/18 02:46:12;;;;;;;20.02;7.10;;;;;;;;;;5047654;28;20687;-83
2021/03/18 02:48:38;;;;;;;12.88;6.95;;;;;;;;;;5032410;28;20029;-83
2021/03/18 02:51:05;;;;;;;36.13;7.15;;;;;;;;;;5049117;28;20031;-83
2021/03/18 02:53:31;;;;;;;13.88;6.13;;;;;;;;;;5033532;28;20021;-83
2021/03/18 02:55:58;;;;;;;15.00;7.03;;;;;;;;;;5050109;28;20048;-82
2021/03/18 02:58:25;;;;;;;16.55;6.82;;;;;;;;;;5050083;28;20044;-83
2021/03/18 03:00:52;;;;;;;20.00;6.75;;;;;;;;;;5045082;28;20032;-82
2021/03/18 03:03:17;;;;;;;16.73;7.03;;;;;;;;;;5048002;28;20028;-82
2021/03/18 03:05:45;;;;;;;14.90;6.90;;;;;;;;;;5045612;28;20024;-82
2021/03/18 03:08:10;;;;;;;20.70;6.45;;;;;;;;;;5030169;28;20032;-82
2021/03/18 03:10:36;;;;;;;20.60;7.30;;;;;;;;;;5049490;28;20025;-83
2021/03/18 03:13:02;;;;;;;17.15;6.45;;;;;;;;;;5047917;28;20017;-86
2021/03/18 03:15:29;;;;;;;13.48;6.82;;;;;;;;;;5031828;28;20020;-82
2021/03/18 03:17:56;;;;;;;18.90;6.68;;;;;;;;;;5050331;28;20484;-82
2021/03/18 03:20:24;;;;;;;13.65;6.32;;;;;;;;;;5056766;28;20024;-83
2021/03/18 03:22:50;;;;;;;23.70;6.63;;;;;;;;;;5031613;28;20144;-82
2021/03/18 03:25:16;;;;;;;14.93;6.32;;;;;;;;;;5074090;28;20071;-82
2021/03/18 03:27:48;;;;;;;13.18;6.45;;;;;;;;;;5045789;28;20040;-83
2021/03/18 03:30:14;;;;;;;15.63;6.88;;;;;;;;;;5045606;28;20020;-83
2021/03/18 03:32:40;;;;;;;13.48;6.32;;;;;;;;;;5044574;28;20025;-82
2021/03/18 03:35:05;;;;;;;13.23;6.22;;;;;;;;;;5044834;28;20015;-82
2021/03/18 03:37:31;;;;;;;15.40;7.00;;;;;;;;;;5046590;28;20520;-82
2021/03/18 03:39:56;;;;;;;11.68;5.95;;;;;;;;;;5039781;28;20132;-82
2021/03/18 03:42:21;;;;;;;14.63;6.82;;;;;;;;;;5051414;28;20089;-83
2021/03/18 03:44:46;;;;;;;19.65;8.10;;;;;;;;;;5050632;28;20021;-83
2021/03/18 03:47:12;;;;;;;19.70;6.70;;;;;;;;;;5059098;28;20013;-83
2021/03/18 03:49:38;;;;;;;15.85;6.22;;;;;;;;;;5076001;28;20025;-82
2021/03/18 03:52:19;;;;;;;16.92;6.80;;;;;;;;;;5049646;28;20017;-83
2021/03/18 03:54:59;;;;;;;13.10;5.88;;;;;;;;;;5047343;28;20017;-82
2021/03/18 03:57:36;;;;;;;16.70;6.85;;;;;;;;;;5059940;28;20022;-83
2021/03/18 04:00:02;;;;;;;16.13;6.10;;;;;;;;;;5031906;28;20025;-83
2021/03/18 04:02:28;;;;;;;18.88;5.80;;;;;;;;;;5053386;28;20024;-84
2021/03/18 04:04:54;;;;;;;17.23;7.28;;;;;;;;;;5030641;28;20112;-83
2021/03/18 04:07:23;;;;;;;13.10;6.57;;;;;;;;;;5036794;28;20029;-83
2021/03/18 04:09:49;;;;;;;16.65;7.05;;;;;;;;;;5051513;28;20079;-83
2021/03/18 04:12:16;;;;;;;30.13;7.90;;;;;;;;;;5045277;28;20055;-83
2021/03/18 04:14:47;;;;;;;17.42;7.05;;;;;;;;;;5031715;28;20048;-83
2021/03/18 04:17:12;;;;;;;17.80;6.50;;;;;;;;;;5032993;28;20020;-83
2021/03/18 04:19:38;;;;;;;21.52;8.02;;;;;;;;;;5048809;28;20443;-83
2021/03/18 04:22:05;;;;;;;19.60;8.55;;;;;;;;;;5038420;28;20047;-83
2021/03/18 04:24:49;;;;;;;14.15;7.25;;;;;;;;;;5053323;28;20096;-83
2021/03/18 04:27:17;;;;;;;20.05;7.38;;;;;;;;;;5036896;28;20017;-83
2021/03/18 04:29:45;;;;;;;19.67;7.65;;;;;;;;;;5037047;28;20051;-83
2021/03/18 04:32:11;;;;;;;23.33;7.57;;;;;;;;;;5037643;28;20074;-83
2021/03/18 04:34:40;;;;;;;24.00;7.63;;;;;;;;;;5036927;28;20021;-83
2021/03/18 04:37:07;;;;;;;16.35;7.30;;;;;;;;;;5035714;28;20100;-83
2021/03/18 04:39:36;;;;;;;20.90;7.22;;;;;;;;;;5037181;28;20528;-83
2021/03/18 04:42:02;;;;;;;18.58;8.18;;;;;;;;;;5035633;28;20532;-83
2021/03/18 04:44:28;;;;;;;15.65;7.95;;;;;;;;;;5054831;28;20062;-83
2021/03/18 04:46:54;;;;;;;25.10;8.40;;;;;;;;;;5036465;28;20029;-83
2021/03/18 04:49:20;;;;;;;18.35;7.93;;;;;;;;;;5053739;28;20028;-82
2021/03/18 04:51:45;;;;;;;20.05;7.93;;;;;;;;;;5050793;28;20008;-83
2021/03/18 04:54:11;;;;;;;20.67;8.07;;;;;;;;;;5054504;28;20461;-83
2021/03/18 04:56:40;;;;;;;26.83;8.13;;;;;;;;;;5022718;28;20044;-85
2021/03/18 04:59:06;;;;;;;23.42;8.75;;;;;;;;;;5066164;28;20067;-83
2021/03/18 05:01:31;;;;;;;23.15;8.13;;;;;;;;;;5069451;28;20020;-83
2021/03/18 05:04:01;;;;;;;16.88;8.43;;;;;;;;;;5049277;28;20025;-83
2021/03/18 05:06:47;;;;;;;25.63;9.18;;;;;;;;;;5034982;28;20033;-83
2021/03/18 05:09:13;;;;;;;23.15;9.02;;;;;;;;;;5053711;28;20086;-83
2021/03/18 05:11:39;;;;;;;28.95;9.55;;;;;;;;;;5061101;28;20025;-83
2021/03/18 05:14:07;;;;;;;26.55;9.60;;;;;;;;;;5030488;28;20025;-83
2021/03/18 05:16:39;;;;;;;17.92;8.88;;;;;;;;;;5021253;28;20072;-83
2021/03/18 05:19:07;;;;;;;14.63;7.80;;;;;;;;;;5035319;28;20017;-83
2021/03/18 05:21:35;;;;;;;24.10;8.25;;;;;;;;;;5044311;28;20060;-84
2021/03/18 05:24:01;;;;;;;21.83;8.30;;;;;;;;;;5054650;28;20116;-84
2021/03/18 05:26:32;;;;;;;21.55;8.55;;;;;;;;;;5033934;28;20067;-83
2021/03/18 05:28:57;;;;;;;18.05;8.30;;;;;;;;;;5048068;28;20033;-85
2021/03/18 05:31:26;;;;;;;21.90;8.05;;;;;;;;;;5017924;28;20055;-83
2021/03/18 05:33:51;;;;;;;16.48;8.40;;;;;;;;;;5045872;28;20035;-84
2021/03/18 05:36:27;;;;;;;21.10;10.10;;;;;;;;;;5050696;28;20024;-83
2021/03/18 05:38:52;;;;;;;17.00;7.82;;;;;;;;;;5032682;28;20094;-83
2021/03/18 05:41:23;;;;;;;21.13;8.18;;;;;;;;;;5035444;28;20033;-84
2021/03/18 05:43:49;;;;;;;32.28;9.30;;;;;;;;;;5026086;28;20052;-83
2021/03/18 05:46:20;;;;;;;17.58;8.02;;;;;;;;;;5030296;28;20103;-84
2021/03/18 05:48:56;;;;;;;25.33;9.05;;;;;;;;;;5025300;28;20040;-84
2021/03/18 05:51:24;;;;;;;14.65;8.32;;;;;;;;;;5050813;28;20025;-84
2021/03/18 05:53:59;;;;;;;24.45;9.27;;;;;;;;;;5051520;28;20021;-84
2021/03/18 05:56:30;;;;;;;22.42;8.43;;;;;;;;;;5051021;28;20366;-83
2021/03/18 05:58:55;;;;;;;21.60;8.55;;;;;;;;;;5031588;28;20021;-83
2021/03/18 06:01:22;;;;;;;18.30;8.63;;;;;;;;;;5032915;28;20103;-83
2021/03/18 06:03:48;;;;;;;19.73;8.43;;;;;;;;;;5033410;28;20029;-83
2021/03/18 06:06:14;;;;;;;18.63;8.63;;;;;;;;;;5053208;28;20035;-84
2021/03/18 06:08:42;;;;;;;24.60;8.73;;;;;;;;;;5029210;28;20155;-84
2021/03/18 06:11:11;;;;;;;16.70;8.40;;;;;;;;;;5032679;28;20070;-84
2021/03/18 06:13:39;;;;;;;26.15;8.52;;;;;;;;;;5049564;28;20547;-84
2021/03/18 06:16:08;;;;;;;21.02;8.35;;;;;;;;;;5044810;28;20017;-84
2021/03/18 06:18:43;;;;;;;23.90;8.38;;;;;;;;;;5057783;28;20036;-85
2021/03/18 06:21:12;;;;;;;28.52;9.60;;;;;;;;;;5031802;28;20025;-85
2021/03/18 06:23:40;;;;;;;27.83;9.43;;;;;;;;;;5030373;28;20758;-84
2021/03/18 06:26:05;;;;;;;16.35;8.20;;;;;;;;;;5030844;28;20029;-84
2021/03/18 06:28:53;;;;;;;27.58;9.90;;;;;;;;;;5028221;28;20041;-85
2021/03/18 06:31:18;;;;;;;25.05;9.23;;;;;;;;;;5025564;28;20017;-84
2021/03/18 06:34:00;;;;;;;27.00;11.68;;;;;;;;;;5028267;28;20032;-84
2021/03/18 06:36:35;;;;;;;20.42;9.95;;;;;;;;;;5033877;28;20060;-84
2021/03/18 06:39:05;;;;;;;27.20;9.13;;;;;;;;;;5048997;28;20025;-84
2021/03/18 06:41:38;;;;;;;19.50;8.05;;;;;;;;;;5045969;28;20028;-85
2021/03/18 06:44:22;;;;;;;24.02;10.13;;;;;;;;;;5040022;28;20111;-87
2021/03/18 06:46:48;;;;;;;29.45;9.93;;;;;;;;;;5027189;28;20405;-86
2021/03/18 06:49:14;;;;;;;24.48;9.20;;;;;;;;;;5032794;28;20062;-86
2021/03/18 06:51:40;;;;;;;30.30;10.73;;;;;;;;;;5031730;28;20029;-86
2021/03/18 06:54:18;;;;;;;21.17;7.75;;;;;;;;;;5033195;28;20097;-87
2021/03/18 06:56:57;;;;;;;15.07;6.40;;;;;;;;;;5049825;28;20023;-86
2021/03/18 06:59:23;;;;;;;27.38;11.43;;;;;;;;;;5023313;28;20510;-85
2021/03/18 07:02:05;;;;;;;22.35;9.65;;;;;;;;;;5049106;28;20016;-85
2021/03/18 07:04:43;;;;;;;32.60;10.23;;;;;;;;;;5049043;28;20446;-87
2021/03/18 07:07:09;;;;;;;24.27;10.82;;;;;;;;;;5030798;28;20025;-85
2021/03/18 07:09:34;;;;;;;23.45;10.77;;;;;;;;;;5063809;22;20049;-67
2021/03/18 07:12:01;;;;;;;24.50;10.32;;;;;;;;;;5046485;28;20432;-69
2021/03/18 07:14:34;;;;;;;23.48;10.68;;;;;;;;;;5050045;28;20021;-69
2021/03/18 07:16:59;;;;;;;28.77;11.93;;;;;;;;;;5031561;28;20055;-68
2021/03/18 07:19:25;;;;;;;28.73;12.70;;;;;;;;;;5049425;28;20052;-68
2021/03/18 07:24:30;;;;;;;27.35;12.27;;;;;;;;;;5066925;28;20059;-67
2021/03/18 07:26:57;;;;;;;28.80;12.50;;;;;;;;;;5068641;28;20019;-67
2021/03/18 07:29:26;;;;;;;27.48;13.32;;;;;;;;;;5069333;28;20024;-67
2021/03/18 07:31:53;;;;;;;29.75;12.40;;;;;;;;;;5070702;28;20099;-67
2021/03/18 07:34:18;;;;;;;28.45;13.38;;;;;;;;;;5069255;28;20016;-67
2021/03/18 07:36:44;;;;;;;27.13;9.88;;;;;;;;;;5069270;28;20029;-67
2021/03/18 07:39:09;;;;;;;22.65;9.20;;;;;;;;;;5068502;28;20035;-67
2021/03/18 07:41:35;;;;;;;25.13;12.48;;;;;;;;;;5068390;28;20027;-67
2021/03/18 07:44:01;;;;;;;30.30;13.15;;;;;;;;;;5068921;28;20025;-67
2021/03/18 07:46:27;;;;;;;24.23;10.88;;;;;;;;;;5069685;28;20100;-68
2021/03/18 07:49:00;;;;;;;28.70;11.60;;;;;;;;;;5068848;28;20037;-67
2021/03/18 07:51:27;;;;;;;31.95;10.05;;;;;;;;;;5069073;28;20370;-67
2021/03/18 07:53:54;;;;;;;25.75;11.93;;;;;;;;;;5069076;28;20029;-67
2021/03/18 07:56:19;;;;;;;25.80;13.60;;;;;;;;;;5050192;28;20025;-67
2021/03/18 07:58:46;;;;;;;29.20;12.23;;;;;;;;;;5070207;28;20050;-67
2021/03/18 08:01:29;;;;;;;27.75;12.82;;;;;;;;;;5073161;28;20025;-67
2021/03/18 08:03:55;;;;;;;38.85;13.73;;;;;;;;;;5073111;28;20028;-67
2021/03/18 08:06:39;;;;;;;31.42;14.02;;;;;;;;;;5073957;28;20103;-68
2021/03/18 08:09:04;;;;;;;34.00;14.25;;;;;;;;;;5067300;28;20020;-67
2021/03/18 08:11:33;;;;;;;36.10;16.10;;;;;;;;;;5070197;28;20027;-66
2021/03/18 08:14:05;;;;;;;31.98;12.98;;;;;;;;;;5069287;28;20027;-66
2021/03/18 08:16:31;;;;;;;42.53;16.05;;;;;;;;;;5068363;28;20087;-66
2021/03/18 08:18:57;;;;;;;38.42;15.65;;;;;;;;;;5073093;28;20104;-66
2021/03/18 08:21:32;;;;;;;42.03;20.55;;;;;;;;;;5071869;28;20033;-66
2021/03/18 08:23:57;;;;;;;41.92;20.83;;;;;;;;;;5061882;28;20045;-66
2021/03/18 08:26:34;;;;;;;45.25;20.90;;;;;;;;;;5063449;28;20051;-66
2021/03/18 08:29:00;;;;;;;47.90;20.58;;;;;;;;;;5066288;28;20033;-66
2021/03/18 08:31:31;;;;;;;46.72;23.65;;;;;;;;;;5072462;28;20090;-66
2021/03/18 08:33:57;;;;;;;50.60;22.15;;;;;;;;;;5073248;28;20029;-66
2021/03/18 08:36:33;;;;;;;48.10;22.25;;;;;;;;;;5070623;28;20029;-66
2021/03/18 08:38:59;;;;;;;54.03;25.23;;;;;;;;;;5071175;28;20016;-66
2021/03/18 08:41:26;;;;;;;79.00;29.27;;;;;;;;;;5072505;28;20035;-66
2021/03/18 08:44:09;;;;;;;59.80;27.42;;;;;;;;;;5070422;28;20404;-66
2021/03/18 08:46:38;;;;;;;58.72;26.05;;;;;;;;;;5065373;28;20103;-66
2021/03/18 08:49:20;;;;;;;65.88;26.25;;;;;;;;;;5072601;28;20013;-66
2021/03/18 08:51:47;;;;;;;72.35;29.48;;;;;;;;;;5065583;28;20028;-66
2021/03/18 08:54:32;;;;;;;64.78;32.40;;;;;;;;;;5072886;28;20484;-66
2021/03/18 08:56:57;;;;;;;70.82;34.13;;;;;;;;;;5071378;28;20052;-65
2021/03/18 08:59:23;;;;;;;71.93;29.92;;;;;;;;;;5070737;28;20056;-68
2021/03/18 09:01:48;;;;;;;79.05;35.53;;;;;;;;;;5064493;28;20374;-66
2021/03/18 09:04:13;;;;;;;83.22;38.25;;;;;;;;;;5069752;28;20044;-66
2021/03/18 09:06:45;;;;;;;44.00;18.50;;;;;;;;;;5071889;28;20407;-66
2021/03/18 09:09:17;;;;;;;51.85;22.77;;;;;;;;;;5070882;28;20458;-66
2021/03/18 09:11:42;;;;;;;94.85;39.50;;;;;;;;;;5071152;28;20056;-66
2021/03/18 09:14:14;;;;;;;83.60;34.88;;;;;;;;;;5070529;28;20519;-66
2021/03/18 09:16:39;;;;;;;75.70;32.90;;;;;;;;;;5072321;28;20023;-66
2021/03/18 09:19:05;;;;;;;88.82;36.17;;;;;;;;;;5070759;28;20025;-66
2021/03/18 09:21:40;;;;;;;107.88;42.67;;;;;;;;;;5072437;28;20017;-68
2021/03/18 09:24:06;;;;;;;105.55;46.70;;;;;;;;;;5063026;28;20078;-66
2021/03/18 09:26:31;;;;;;;116.82;52.88;;;;;;;;;;5071757;28;20020;-66
2021/03/18 09:28:58;;;;;;;107.68;50.65;;;;;;;;;;5070734;28;20349;-66
2021/03/18 09:31:24;;;;;;;116.30;46.28;;;;;;;;;;5072191;28;20017;-66
2021/03/18 09:33:52;;;;;;;79.43;32.75;;;;;;;;;;5064247;28;20075;-66
2021/03/18 09:36:17;;;;;;;116.60;52.67;;;;;;;;;;5069193;28;20035;-66
2021/03/18 09:38:53;;;;;;;108.18;54.42;;;;;;;;;;5071981;28;20016;-66
2021/03/18 09:41:24;;;;;;;113.53;46.30;;;;;;;;;;5067862;28;20028;-66
2021/03/18 09:43:50;;;;;;;121.10;49.53;;;;;;;;;;5067074;28;20655;-66
2021/03/18 09:46:15;;;;;;;115.55;54.08;;;;;;;;;;5068964;28;20025;-66
2021/03/18 09:48:40;;;;;;;111.05;52.70;;;;;;;;;;5071465;28;20058;-66
2021/03/18 09:51:08;;;;;;;126.07;56.17;;;;;;;;;;5062522;28;20102;-66
2021/03/18 09:53:34;;;;;;;96.22;38.80;;;;;;;;;;5070877;28;20484;-66
2021/03/18 09:56:06;;;;;;;126.07;56.38;;;;;;;;;;5062396;28;20078;-66
2021/03/18 09:58:31;;;;;;;115.38;54.08;;;;;;;;;;5062400;28;20177;-66
2021/03/18 10:00:57;;;;;;;127.05;57.28;;;;;;;;;;5070232;28;20504;-66
2021/03/18 10:03:22;;;;;;;79.10;31.50;;;;;;;;;;5071617;28;20031;-66
2021/03/18 10:05:47;;;;;;;124.55;51.55;;;;;;;;;;5071014;28;20028;-66
2021/03/18 10:08:12;;;;;;;111.28;51.60;;;;;;;;;;5068705;28;20099;-66
2021/03/18 10:10:38;;;;;;;124.30;52.92;;;;;;;;;;5064463;28;20017;-67
2021/03/18 10:13:03;;;;;;;114.20;50.17;;;;;;;;;;5069602;28;20484;-67
2021/03/18 10:15:29;;;;;;;118.60;51.50;;;;;;;;;;5071062;28;20027;-67
2021/03/18 10:17:55;;;;;;;124.20;56.85;;;;;;;;;;5070855;28;20468;-67
2021/03/18 10:20:22;;;;;;;113.95;52.00;;;;;;;;;;5067566;28;20016;-67
2021/03/18 10:22:56;;;;;;;113.93;47.55;;;;;;;;;;5062079;28;20024;-67
2021/03/18 10:25:24;;;;;;;99.97;37.85;;;;;;;;;;5062797;28;20408;-67
2021/03/18 10:27:51;;;;;;;105.63;41.55;;;;;;;;;;5060933;28;20039;-67
2021/03/18 10:30:18;;;;;;;120.22;54.35;;;;;;;;;;5067176;28;20016;-67
2021/03/18 10:33:01;;;;;;;123.32;63.17;;;;;;;;;;5068244;28;20031;-67
2021/03/18 10:35:26;;;;;;;112.95;53.28;;;;;;;;;;5067412;28;20025;-67
2021/03/18 10:37:52;;;;;;;119.78;57.63;;;;;;;;;;5065161;28;20020;-67
2021/03/18 10:40:19;;;;;;;107.85;52.40;;;;;;;;;;5068611;28;20187;-67
2021/03/18 10:42:49;;;;;;;122.97;50.35;;;;;;;;;;5068734;28;20500;-67
2021/03/18 10:45:18;;;;;;;99.15;52.13;;;;;;;;;;5070804;28;20136;-67
2021/03/18 10:47:44;;;;;;;115.90;54.53;;;;;;;;;;5069856;28;20028;-67
2021/03/18 10:50:11;;;;;;;114.88;49.70;;;;;;;;;;5070718;28;20247;-68
2021/03/18 10:52:37;;;;;;;102.68;46.45;;;;;;;;;;5068897;28;20020;-67
2021/03/18 10:55:03;;;;;;;101.68;55.10;;;;;;;;;;5062438;28;20070;-67
2021/03/18 10:57:28;;;;;;;95.90;47.67;;;;;;;;;;5069582;28;20012;-67
2021/03/18 11:00:00;;;;;;;90.78;46.47;;;;;;;;;;5070299;28;20096;-67
2021/03/18 11:02:26;;;;;;;92.38;44.63;;;;;;;;;;5070192;28;20074;-67
2021/03/18 11:04:52;;;;;;;87.45;42.08;;;;;;;;;;5068781;28;20067;-67
2021/03/18 11:07:17;;;;;;;82.43;37.05;;;;;;;;;;5068951;28;20098;-67
2021/03/18 11:09:43;;;;;;;76.15;35.35;;;;;;;;;;5061547;28;20020;-68
2021/03/18 11:12:08;;;;;;;77.78;35.97;;;;;;;;;;5069811;28;20012;-67
2021/03/18 11:14:33;;;;;;;63.17;32.35;;;;;;;;;;5066140;28;20564;-67
2021/03/18 11:17:05;;;;;;;63.10;30.35;;;;;;;;;;5069185;28;20020;-67
2021/03/18 11:19:31;;;;;;;61.33;31.75;;;;;;;;;;5061223;28;20025;-67
2021/03/18 11:22:00;;;;;;;54.35;30.73;;;;;;;;;;5069882;28;20091;-67
2021/03/18 11:24:26;;;;;;;51.65;26.58;;;;;;;;;;5069788;28;20032;-68
2021/03/18 11:26:51;;;;;;;53.25;28.13;;;;;;;;;;5069578;28;20495;-68
2021/03/18 11:29:17;;;;;;;59.70;28.67;;;;;;;;;;5070111;28;20066;-68
2021/03/18 11:31:44;;;;;;;41.35;23.65;;;;;;;;;;5064719;28;20270;-67
2021/03/18 11:34:16;;;;;;;38.45;20.50;;;;;;;;;;5082545;28;20412;-67
2021/03/18 11:36:42;;;;;;;34.95;18.48;;;;;;;;;;5074579;28;20073;-67
2021/03/18 11:39:07;;;;;;;35.33;15.95;;;;;;;;;;5076990;28;20023;-67
2021/03/18 11:41:32;;;;;;;34.90;15.52;;;;;;;;;;5075975;28;20380;-68
2021/03/18 11:43:57;;;;;;;30.33;14.35;;;;;;;;;;5075432;28;20469;-67
2021/03/18 11:46:23;;;;;;;32.78;17.08;;;;;;;;;;5076054;28;20456;-67
2021/03/18 11:48:48;;;;;;;33.00;15.38;;;;;;;;;;5073415;28;20031;-68
2021/03/18 11:51:13;;;;;;;32.13;16.23;;;;;;;;;;5075977;28;20017;-68
2021/03/18 11:53:38;;;;;;;35.17;16.35;;;;;;;;;;5076567;28;20075;-68
2021/03/18 11:56:04;;;;;;;32.22;15.20;;;;;;;;;;5077896;28;20017;-68
2021/03/18 11:58:29;;;;;;;22.42;12.27;;;;;;;;;;5076076;28;20100;-68
2021/03/18 12:00:54;;;;;;;25.20;12.25;;;;;;;;;;5075735;28;20016;-67
2021/03/18 12:03:19;;;;;;;26.65;12.75;;;;;;;;;;5068599;28;20059;-67
2021/03/18 12:05:45;;;;;;;24.55;12.20;;;;;;;;;;5075750;28;20039;-68
2021/03/18 12:08:10;;;;;;;23.35;11.65;;;;;;;;;;5074231;28;20498;-67
2021/03/18 12:10:36;;;;;;;22.85;10.40;;;;;;;;;;5076433;28;20033;-67
2021/03/18 12:13:02;;;;;;;23.48;9.45;;;;;;;;;;5068249;28;20075;-68
2021/03/18 12:15:27;;;;;;;18.10;9.98;;;;;;;;;;5073970;28;20460;-67
2021/03/18 12:17:52;;;;;;;22.25;10.02;;;;;;;;;;5074914;28;20021;-67
2021/03/18 12:20:21;;;;;;;19.13;9.23;;;;;;;;;;5076561;28;20025;-67
2021/03/18 12:22:47;;;;;;;24.52;8.00;;;;;;;;;;5074631;28;20040;-67
2021/03/18 12:25:14;;;;;;;24.98;9.15;;;;;;;;;;5067596;28;20028;-67
2021/03/18 12:27:39;;;;;;;19.77;7.07;;;;;;;;;;5074722;28;20476;-67
2021/03/18 12:30:10;;;;;;;21.73;6.85;;;;;;;;;;5074216;28;20059;-68
2021/03/18 12:32:35;;;;;;;13.88;5.78;;;;;;;;;;5065244;28;20024;-67
2021/03/18 12:35:01;;;;;;;21.48;6.47;;;;;;;;;;5071823;28;20492;-67
2021/03/18 12:37:26;;;;;;;12.93;6.22;;;;;;;;;;5070831;28;20361;-67
2021/03/18 12:39:51;;;;;;;22.30;7.07;;;;;;;;;;5075157;28;20020;-67
2021/03/18 12:42:16;;;;;;;12.30;6.47;;;;;;;;;;5074534;28;20040;-67
2021/03/18 12:44:42;;;;;;;19.83;6.75;;;;;;;;;;5073751;28;20021;-67
2021/03/18 12:47:08;;;;;;;19.55;6.72;;;;;;;;;;5070598;28;20432;-67
2021/03/18 12:49:33;;;;;;;12.65;6.75;;;;;;;;;;5065010;28;20023;-67
2021/03/18 12:51:58;;;;;;;16.75;6.22;;;;;;;;;;5070361;28;20381;-67
2021/03/18 12:54:24;;;;;;;13.27;8.32;;;;;;;;;;5072915;28;20020;-67
2021/03/18 12:56:49;;;;;;;17.92;7.70;;;;;;;;;;5071941;28;20024;-67
2021/03/18 12:59:14;;;;;;;14.80;6.93;;;;;;;;;;5071010;28;20032;-67
2021/03/18 13:01:39;;;;;;;14.40;6.95;;;;;;;;;;5071098;28;20043;-67
2021/03/18 13:04:06;;;;;;;10.98;6.93;;;;;;;;;;5067775;28;20032;-67
2021/03/18 13:06:31;;;;;;;16.27;5.95;;;;;;;;;;5062739;28;20025;-67
2021/03/18 13:08:56;;;;;;;19.65;6.22;;;;;;;;;;5064408;28;20033;-67
2021/03/18 13:11:21;;;;;;;10.48;5.82;;;;;;;;;;5063099;28;20017;-67
2021/03/18 13:13:46;;;;;;;15.85;7.10;;;;;;;;;;5071449;28;20033;-67
2021/03/18 13:16:12;;;;;;;12.00;5.55;;;;;;;;;;5070669;28;20036;-67
2021/03/18 13:18:37;;;;;;;11.85;6.57;;;;;;;;;;5070405;28;20540;-67
2021/03/18 13:21:02;;;;;;;14.10;5.90;;;;;;;;;;5072602;28;20020;-67
2021/03/18 13:23:28;;;;;;;16.30;8.32;;;;;;;;;;5084352;22;20155;-63
2021/03/18 13:25:53;;;;;;;25.35;8.95;;;;;;;;;;5051922;28;20104;-63
2021/03/18 13:28:18;;;;;;;16.20;8.50;;;;;;;;;;5049765;28;20099;-64
2021/03/18 13:30:44;;;;;;;17.42;8.82;;;;;;;;;;5052046;28;20035;-65
2021/03/18 13:33:09;;;;;;;18.40;8.93;;;;;;;;;;5051632;28;20013;-65
2021/03/18 13:35:35;;;;;;;22.45;8.82;;;;;;;;;;5051300;28;20020;-64
2021/03/18 13:38:01;;;;;;;15.85;8.32;;;;;;;;;;5051259;28;20420;-64
2021/03/18 13:40:28;;;;;;;17.75;8.85;;;;;;;;;;5053985;28;20020;-64
2021/03/18 13:42:53;;;;;;;22.83;8.50;;;;;;;;;;5053106;28;20047;-65
2021/03/18 13:45:19;;;;;;;25.50;7.68;;;;;;;;;;5055888;28;20031;-65
2021/03/18 13:47:45;;;;;;;20.42;8.45;;;;;;;;;;5053715;28;20033;-64
2021/03/18 13:50:11;;;;;;;14.80;7.78;;;;;;;;;;5053038;28;20526;-66
2021/03/18 13:52:36;;;;;;;21.60;8.60;;;;;;;;;;5048870;28;20033;-64
2021/03/18 13:55:02;;;;;;;18.63;8.68;;;;;;;;;;5050404;28;20017;-63
2021/03/18 13:57:27;;;;;;;24.38;9.70;;;;;;;;;;5050268;28;20412;-64
2021/03/18 13:59:52;;;;;;;20.55;10.88;;;;;;;;;;5049253;28;20021;-63
2021/03/18 14:02:21;;;;;;;19.15;9.27;;;;;;;;;;5050886;28;20029;-63
2021/03/18 14:04:46;;;;;;;25.25;8.60;;;;;;;;;;5049677;28;20029;-64
2021/03/18 14:07:12;;;;;;;16.23;8.25;;;;;;;;;;5050501;28;20103;-65
2021/03/18 14:09:37;;;;;;;17.98;8.35;;;;;;;;;;5048992;28;20051;-64
2021/03/18 14:12:02;;;;;;;16.60;7.75;;;;;;;;;;5051485;28;20028;-64
2021/03/18 14:14:28;;;;;;;19.45;8.60;;;;;;;;;;5049227;28;20485;-65
2021/03/18 14:16:53;;;;;;;21.42;8.93;;;;;;;;;;5049501;28;20318;-64
2021/03/18 14:19:18;;;;;;;16.20;7.80;;;;;;;;;;5051533;28;20028;-64
2021/03/18 14:21:44;;;;;;;13.63;6.65;;;;;;;;;;5049129;28;20024;-63
2021/03/18 14:24:09;;;;;;;21.58;10.85;;;;;;;;;;5048751;28;20040;-63
2021/03/18 14:26:34;;;;;;;11.15;5.53;;;;;;;;;;5049252;28;20024;-63
2021/03/18 14:28:59;;;;;;;22.33;6.78;;;;;;;;;;5044948;28;20024;-63
2021/03/18 14:31:24;;;;;;;22.23;7.75;;;;;;;;;;5050314;28;20112;-63